Terminal Aerodrome Forecast
Issued by NWS

Home | Current Version | Previous Version | Text Only | Print | Product List | Glossary On
Versions: 1 2 3 4 5 6 7 8 9 10 11 12 13 14 15 16 17 18 19 20 21 22 23 24 25 26 27 28
000
FTUS43 KDLH 192300
TAFHYR
TAF
KHYR 192335Z 2000/2024 25006KT P6SM SKC
     FM200400 32006KT P6SM SCT030
     FM200900 33005KT P6SM SCT022 BKN035
     FM201400 35008G13KT P6SM BKN018
     FM201900 01010KT P6SM BKN028
     FM202300 05005KT P6SM SCT028 BKN040=

USA.gov is the U.S. government's official web portal to all federal, state and local government web resources and services.